sensor_id;sensor_type;location;lat;lon;timestamp;pressure;altitude;pressure_sealevel;temperature
15709;BMP180;7954;51.914;8.420;2023-02-15T00:00:08;101680.00;;;11.81
15709;BMP180;7954;51.914;8.420;2023-02-15T00:02:37;101675.34;;;11.79
15709;BMP180;7954;51.914;8.420;2023-02-15T00:05:07;101680.41;;;11.79
15709;BMP180;7954;51.914;8.420;2023-02-15T00:07:36;101676.63;;;11.77
15709;BMP180;7954;51.914;8.420;2023-02-15T00:10:05;101673.56;;;11.74
15709;BMP180;7954;51.914;8.420;2023-02-15T00:12:33;101673.97;;;11.71
15709;BMP180;7954;51.914;8.420;2023-02-15T00:15:01;101686.34;;;11.70
15709;BMP180;7954;51.914;8.420;2023-02-15T00:17:29;101678.56;;;11.64
15709;BMP180;7954;51.914;8.420;2023-02-15T00:19:57;101680.56;;;11.61
15709;BMP180;7954;51.914;8.420;2023-02-15T00:22:26;101666.41;;;11.58
15709;BMP180;7954;51.914;8.420;2023-02-15T00:24:54;101669.31;;;11.55
15709;BMP180;7954;51.914;8.420;2023-02-15T00:27:23;101657.44;;;11.51
15709;BMP180;7954;51.914;8.420;2023-02-15T00:29:50;101659.66;;;11.49
15709;BMP180;7954;51.914;8.420;2023-02-15T00:32:19;101655.38;;;11.44
15709;BMP180;7954;51.914;8.420;2023-02-15T00:34:47;101654.81;;;11.41
15709;BMP180;7954;51.914;8.420;2023-02-15T00:37:15;101646.66;;;11.38
15709;BMP180;7954;51.914;8.420;2023-02-15T00:39:44;101650.50;;;11.36
15709;BMP180;7954;51.914;8.420;2023-02-15T00:42:12;101655.94;;;11.34
15709;BMP180;7954;51.914;8.420;2023-02-15T00:44:40;101655.03;;;11.33
15709;BMP180;7954;51.914;8.420;2023-02-15T00:47:09;101652.59;;;11.29
15709;BMP180;7954;51.914;8.420;2023-02-15T00:49:37;101649.22;;;11.25
15709;BMP180;7954;51.914;8.420;2023-02-15T00:52:05;101651.22;;;11.22
15709;BMP180;7954;51.914;8.420;2023-02-15T00:54:33;101651.88;;;11.21
15709;BMP180;7954;51.914;8.420;2023-02-15T00:57:04;101652.63;;;11.16
15709;BMP180;7954;51.914;8.420;2023-02-15T00:59:32;101649.81;;;11.14
15709;BMP180;7954;51.914;8.420;2023-02-15T01:01:59;101663.50;;;11.11
15709;BMP180;7954;51.914;8.420;2023-02-15T01:04:51;101669.31;;;11.06
15709;BMP180;7954;51.914;8.420;2023-02-15T01:07:19;101663.03;;;11.04
15709;BMP180;7954;51.914;8.420;2023-02-15T01:09:47;101656.13;;;11.03
15709;BMP180;7954;51.914;8.420;2023-02-15T01:12:17;101651.72;;;11.02
15709;BMP180;7954;51.914;8.420;2023-02-15T01:14:45;101651.72;;;11.02
15709;BMP180;7954;51.914;8.420;2023-02-15T01:17:13;101649.28;;;10.98
15709;BMP180;7954;51.914;8.420;2023-02-15T01:19:41;101640.59;;;10.92
15709;BMP180;7954;51.914;8.420;2023-02-15T01:22:09;101633.38;;;10.89
15709;BMP180;7954;51.914;8.420;2023-02-15T01:24:37;101631.50;;;10.88
15709;BMP180;7954;51.914;8.420;2023-02-15T01:27:05;101633.19;;;10.84
15709;BMP180;7954;51.914;8.420;2023-02-15T01:29:34;101626.66;;;10.81
15709;BMP180;7954;51.914;8.420;2023-02-15T01:32:02;101622.63;;;10.77
15709;BMP180;7954;51.914;8.420;2023-02-15T01:34:31;101626.47;;;10.75
15709;BMP180;7954;51.914;8.420;2023-02-15T01:36:59;101618.06;;;10.71
15709;BMP180;7954;51.914;8.420;2023-02-15T01:39:27;101622.16;;;10.70
15709;BMP180;7954;51.914;8.420;2023-02-15T01:41:55;101617.13;;;10.70
15709;BMP180;7954;51.914;8.420;2023-02-15T01:44:56;101616.56;;;10.67
15709;BMP180;7954;51.914;8.420;2023-02-15T01:47:29;101616.84;;;10.69
15709;BMP180;7954;51.914;8.420;2023-02-15T01:50:12;101615.22;;;10.69
15709;BMP180;7954;51.914;8.420;2023-02-15T01:52:48;101612.44;;;10.68
15709;BMP180;7954;51.914;8.420;2023-02-15T01:55:16;101614.50;;;10.61
15709;BMP180;7954;51.914;8.420;2023-02-15T01:57:45;101625.38;;;10.56
15709;BMP180;7954;51.914;8.420;2023-02-15T02:00:17;101623.50;;;10.55
15709;BMP180;7954;51.914;8.420;2023-02-15T02:02:47;101629.84;;;10.53
15709;BMP180;7954;51.914;8.420;2023-02-15T02:05:19;101619.72;;;10.53
15709;BMP180;7954;51.914;8.420;2023-02-15T02:07:50;101616.38;;;10.48
15709;BMP180;7954;51.914;8.420;2023-02-15T02:10:21;101618.06;;;10.44
15709;BMP180;7954;51.914;8.420;2023-02-15T02:12:51;101614.28;;;10.42
15709;BMP180;7954;51.914;8.420;2023-02-15T02:15:27;101613.00;;;10.44
15709;BMP180;7954;51.914;8.420;2023-02-15T02:18:04;101606.06;;;10.43
15709;BMP180;7954;51.914;8.420;2023-02-15T02:20:53;101605.91;;;10.37
15709;BMP180;7954;51.914;8.420;2023-02-15T02:23:31;101601.22;;;10.35
15709;BMP180;7954;51.914;8.420;2023-02-15T02:29:33;101595.97;;;10.29
15709;BMP180;7954;51.914;8.420;2023-02-15T02:35:11;101589.44;;;10.26
15709;BMP180;7954;51.914;8.420;2023-02-15T02:37:50;101587.28;;;10.24
15709;BMP180;7954;51.914;8.420;2023-02-15T02:40:25;101582.63;;;10.21
15709;BMP180;7954;51.914;8.420;2023-02-15T02:43:00;101582.69;;;10.17
15709;BMP180;7954;51.914;8.420;2023-02-15T02:45:35;101589.69;;;10.14
15709;BMP180;7954;51.914;8.420;2023-02-15T02:48:12;101573.91;;;10.15
15709;BMP180;7954;51.914;8.420;2023-02-15T02:50:42;101577.81;;;10.09
15709;BMP180;7954;51.914;8.420;2023-02-15T02:53:10;101572.50;;;10.08
15709;BMP180;7954;51.914;8.420;2023-02-15T02:55:42;101566.03;;;10.00
15709;BMP180;7954;51.914;8.420;2023-02-15T02:58:15;101565.09;;;10.00
15709;BMP180;7954;51.914;8.420;2023-02-15T03:00:49;101573.31;;;9.99
15709;BMP180;7954;51.914;8.420;2023-02-15T03:03:20;101566.75;;;9.95
15709;BMP180;7954;51.914;8.420;2023-02-15T03:05:57;101566.16;;;9.92
15709;BMP180;7954;51.914;8.420;2023-02-15T03:08:32;101561.75;;;9.91
15709;BMP180;7954;51.914;8.420;2023-02-15T03:11:03;101563.09;;;9.89
15709;BMP180;7954;51.914;8.420;2023-02-15T03:13:31;101576.06;;;9.87
15709;BMP180;7954;51.914;8.420;2023-02-15T03:16:01;101569.16;;;9.86
15709;BMP180;7954;51.914;8.420;2023-02-15T03:18:48;101561.38;;;9.80
15709;BMP180;7954;51.914;8.420;2023-02-15T03:21:21;101562.59;;;9.82
15709;BMP180;7954;51.914;8.420;2023-02-15T03:23:54;101557.00;;;9.79
15709;BMP180;7954;51.914;8.420;2023-02-15T03:26:26;101556.41;;;9.76
15709;BMP180;7954;51.914;8.420;2023-02-15T03:28:57;101558.66;;;9.75
15709;BMP180;7954;51.914;8.420;2023-02-15T03:31:28;101554.63;;;9.71
15709;BMP180;7954;51.914;8.420;2023-02-15T03:34:02;101549.94;;;9.69
15709;BMP180;7954;51.914;8.420;2023-02-15T03:36:39;101554.34;;;9.70
15709;BMP180;7954;51.914;8.420;2023-02-15T03:39:13;101549.38;;;9.66
15709;BMP180;7954;51.914;8.420;2023-02-15T03:41:49;101553.19;;;9.64
15709;BMP180;7954;51.914;8.420;2023-02-15T03:44:25;101559.47;;;9.66
15709;BMP180;7954;51.914;8.420;2023-02-15T03:46:59;101546.59;;;9.64
15709;BMP180;7954;51.914;8.420;2023-02-15T03:49:32;101545.06;;;9.61
15709;BMP180;7954;51.914;8.420;2023-02-15T03:52:04;101545.72;;;9.60
15709;BMP180;7954;51.914;8.420;2023-02-15T03:54:34;101542.06;;;9.54
15709;BMP180;7954;51.914;8.420;2023-02-15T03:57:19;101540.59;;;9.51
15709;BMP180;7954;51.914;8.420;2023-02-15T04:00:11;101532.78;;;9.45
15709;BMP180;7954;51.914;8.420;2023-02-15T04:03:12;101538.84;;;9.42
15709;BMP180;7954;51.914;8.420;2023-02-15T04:05:44;101535.13;;;9.40
15709;BMP180;7954;51.914;8.420;2023-02-15T04:08:13;101542.69;;;9.40
15709;BMP180;7954;51.914;8.420;2023-02-15T04:10:42;101534.84;;;9.38
15709;BMP180;7954;51.914;8.420;2023-02-15T04:13:24;101536.50;;;9.34
15709;BMP180;7954;51.914;8.420;2023-02-15T04:15:53;101536.50;;;9.34
15709;BMP180;7954;51.914;8.420;2023-02-15T04:18:32;101551.06;;;9.31
15709;BMP180;7954;51.914;8.420;2023-02-15T04:21:18;101537.22;;;9.29
15709;BMP180;7954;51.914;8.420;2023-02-15T04:24:06;101531.31;;;9.24
15709;BMP180;7954;51.914;8.420;2023-02-15T04:26:52;101541.75;;;9.22
15709;BMP180;7954;51.914;8.420;2023-02-15T04:29:21;101531.41;;;9.20
15709;BMP180;7954;51.914;8.420;2023-02-15T04:31:49;101534.91;;;9.17
15709;BMP180;7954;51.914;8.420;2023-02-15T04:34:17;101534.34;;;9.14
15709;BMP180;7954;51.914;8.420;2023-02-15T04:36:45;101537.16;;;9.15
15709;BMP180;7954;51.914;8.420;2023-02-15T04:39:15;101526.53;;;9.12
15709;BMP180;7954;51.914;8.420;2023-02-15T04:41:43;101526.25;;;9.11
15709;BMP180;7954;51.914;8.420;2023-02-15T04:44:11;101518.72;;;9.07
15709;BMP180;7954;51.914;8.420;2023-02-15T04:46:38;101515.66;;;9.04
15709;BMP180;7954;51.914;8.420;2023-02-15T04:49:08;101514.38;;;9.06
15709;BMP180;7954;51.914;8.420;2023-02-15T04:51:36;101523.50;;;9.05
15709;BMP180;7954;51.914;8.420;2023-02-15T04:54:04;101513.78;;;9.03
15709;BMP180;7954;51.914;8.420;2023-02-15T04:56:33;101514.41;;;9.02
15709;BMP180;7954;51.914;8.420;2023-02-15T04:59:04;101512.84;;;9.02
15709;BMP180;7954;51.914;8.420;2023-02-15T05:01:32;101518.25;;;9.00
15709;BMP180;7954;51.914;8.420;2023-02-15T05:04:00;101515.47;;;8.98
15709;BMP180;7954;51.914;8.420;2023-02-15T05:06:28;101517.66;;;8.97
15709;BMP180;7954;51.914;8.420;2023-02-15T05:08:56;101512.69;;;8.93
15709;BMP180;7954;51.914;8.420;2023-02-15T05:11:25;101510.81;;;8.92
15709;BMP180;7954;51.914;8.420;2023-02-15T05:13:55;101516.53;;;8.91
15709;BMP180;7954;51.914;8.420;2023-02-15T05:16:23;101519.69;;;8.90
15709;BMP180;7954;51.914;8.420;2023-02-15T05:18:52;101510.34;;;8.85
15709;BMP180;7954;51.914;8.420;2023-02-15T05:21:20;101506.59;;;8.83
15709;BMP180;7954;51.914;8.420;2023-02-15T05:23:48;101512.25;;;8.82
15709;BMP180;7954;51.914;8.420;2023-02-15T05:26:18;101505.44;;;8.77
15709;BMP180;7954;51.914;8.420;2023-02-15T05:29:06;101510.47;;;8.77
15709;BMP180;7954;51.914;8.420;2023-02-15T05:31:34;101512.97;;;8.77
15709;BMP180;7954;51.914;8.420;2023-02-15T05:34:03;101502.63;;;8.76
15709;BMP180;7954;51.914;8.420;2023-02-15T05:36:31;101506.81;;;8.71
15709;BMP180;7954;51.914;8.420;2023-02-15T05:38:59;101500.00;;;8.66
15709;BMP180;7954;51.914;8.420;2023-02-15T05:41:29;101510.69;;;8.65
15709;BMP180;7954;51.914;8.420;2023-02-15T05:43:56;101500.72;;;8.61
15709;BMP180;7954;51.914;8.420;2023-02-15T05:46:25;101506.38;;;8.60
15709;BMP180;7954;51.914;8.420;2023-02-15T05:48:54;101508.91;;;8.60
15709;BMP180;7954;51.914;8.420;2023-02-15T05:51:21;101507.03;;;8.59
15709;BMP180;7954;51.914;8.420;2023-02-15T05:53:49;101499.53;;;8.55
15709;BMP180;7954;51.914;8.420;2023-02-15T05:56:17;101507.16;;;8.51
15709;BMP180;7954;51.914;8.420;2023-02-15T05:58:45;101504.06;;;8.48
15709;BMP180;7954;51.914;8.420;2023-02-15T06:01:15;101495.94;;;8.45
15709;BMP180;7954;51.914;8.420;2023-02-15T06:03:45;101490.63;;;8.44
15709;BMP180;7954;51.914;8.420;2023-02-15T06:06:15;101501.59;;;8.44
15709;BMP180;7954;51.914;8.420;2023-02-15T06:08:43;101494.41;;;8.42
15709;BMP180;7954;51.914;8.420;2023-02-15T06:11:12;101501.69;;;8.40
15709;BMP180;7954;51.914;8.420;2023-02-15T06:13:40;101500.09;;;8.41
15709;BMP180;7954;51.914;8.420;2023-02-15T06:16:08;101493.84;;;8.39
15709;BMP180;7954;51.914;8.420;2023-02-15T06:18:36;101502.03;;;8.38
15709;BMP180;7954;51.914;8.420;2023-02-15T06:21:05;101499.25;;;8.36
15709;BMP180;7954;51.914;8.420;2023-02-15T06:23:33;101508.63;;;8.37
15709;BMP180;7954;51.914;8.420;2023-02-15T06:26:01;101501.41;;;8.39
15709;BMP180;7954;51.914;8.420;2023-02-15T06:28:30;101502.66;;;8.37
15709;BMP180;7954;51.914;8.420;2023-02-15T06:30:58;101514.00;;;8.35
15709;BMP180;7954;51.914;8.420;2023-02-15T06:33:26;101510.56;;;8.34
15709;BMP180;7954;51.914;8.420;2023-02-15T06:35:56;101506.47;;;8.35
15709;BMP180;7954;51.914;8.420;2023-02-15T06:38:27;101505.91;;;8.32
15709;BMP180;7954;51.914;8.420;2023-02-15T06:40:55;101503.75;;;8.30
15709;BMP180;7954;51.914;8.420;2023-02-15T06:43:23;101508.47;;;8.28
15709;BMP180;7954;51.914;8.420;2023-02-15T06:45:51;101498.78;;;8.26
15709;BMP180;7954;51.914;8.420;2023-02-15T06:48:20;101503.53;;;8.24
15709;BMP180;7954;51.914;8.420;2023-02-15T06:50:48;101503.53;;;8.24
15709;BMP180;7954;51.914;8.420;2023-02-15T06:53:16;101509.47;;;8.25
15709;BMP180;7954;51.914;8.420;2023-02-15T06:55:46;101503.16;;;8.27
15709;BMP180;7954;51.914;8.420;2023-02-15T06:58:14;101497.47;;;8.28
15709;BMP180;7954;51.914;8.420;2023-02-15T07:00:42;101494.31;;;8.29
15709;BMP180;7954;51.914;8.420;2023-02-15T07:03:13;101499.34;;;8.29
15709;BMP180;7954;51.914;8.420;2023-02-15T07:05:43;101496.81;;;8.29
15709;BMP180;7954;51.914;8.420;2023-02-15T07:08:14;101497.34;;;8.35
15709;BMP180;7954;51.914;8.420;2023-02-15T07:10:43;101504.63;;;8.34
15709;BMP180;7954;51.914;8.420;2023-02-15T07:13:13;101500.50;;;8.34
15709;BMP180;7954;51.914;8.420;2023-02-15T07:15:39;101501.69;;;8.40
15709;BMP180;7954;51.914;8.420;2023-02-15T07:18:07;101497.56;;;8.41
15709;BMP180;7954;51.914;8.420;2023-02-15T07:20:37;101499.81;;;8.39
15709;BMP180;7954;51.914;8.420;2023-02-15T07:23:08;101509.72;;;8.47
15709;BMP180;7954;51.914;8.420;2023-02-15T07:25:37;101500.25;;;8.50
15709;BMP180;7954;51.914;8.420;2023-02-15T07:28:06;101495.78;;;8.53
15709;BMP180;7954;51.914;8.420;2023-02-15T07:30:37;101499.47;;;8.59
15709;BMP180;7954;51.914;8.420;2023-02-15T07:33:06;101489.97;;;8.62
15709;BMP180;7954;51.914;8.420;2023-02-15T07:35:54;101489.59;;;8.65
15709;BMP180;7954;51.914;8.420;2023-02-15T07:38:26;101489.19;;;8.71
15709;BMP180;7954;51.914;8.420;2023-02-15T07:40:57;101488.13;;;8.79
15709;BMP180;7954;51.914;8.420;2023-02-15T07:43:26;101490.63;;;8.79
15709;BMP180;7954;51.914;8.420;2023-02-15T07:45:58;101487.97;;;8.87
15709;BMP180;7954;51.914;8.420;2023-02-15T07:48:28;101481.28;;;8.91
15709;BMP180;7954;51.914;8.420;2023-02-15T07:50:58;101470.84;;;8.94
15709;BMP180;7954;51.914;8.420;2023-02-15T07:53:27;101470.16;;;8.94
15709;BMP180;7954;51.914;8.420;2023-02-15T07:55:58;101475.06;;;9.02
15709;BMP180;7954;51.914;8.420;2023-02-15T07:58:26;101465.28;;;9.04
15709;BMP180;7954;51.914;8.420;2023-02-15T08:01:10;101469.41;;;9.17
15709;BMP180;7954;51.914;8.420;2023-02-15T08:03:38;101463.09;;;9.19
15709;BMP180;7954;51.914;8.420;2023-02-15T08:06:06;101460.72;;;9.28
15709;BMP180;7954;51.914;8.420;2023-02-15T08:08:34;101454.63;;;9.32
15709;BMP180;7954;51.914;8.420;2023-02-15T08:11:05;101456.63;;;9.42
15709;BMP180;7954;51.914;8.420;2023-02-15T08:13:53;101450.56;;;9.46
15709;BMP180;7954;51.914;8.420;2023-02-15T08:16:27;101443.75;;;9.54
15709;BMP180;7954;51.914;8.420;2023-02-15T08:18:57;101439.28;;;9.57
15709;BMP180;7954;51.914;8.420;2023-02-15T08:21:26;101433.13;;;9.64
15709;BMP180;7954;51.914;8.420;2023-02-15T08:23:56;101435.19;;;9.71
15709;BMP180;7954;51.914;8.420;2023-02-15T08:26:25;101433.03;;;9.82
15709;BMP180;7954;51.914;8.420;2023-02-15T08:28:54;101425.47;;;9.95
15709;BMP180;7954;51.914;8.420;2023-02-15T08:31:23;101419.50;;;10.08
15709;BMP180;7954;51.914;8.420;2023-02-15T08:33:54;101422.13;;;10.18
15709;BMP180;7954;51.914;8.420;2023-02-15T08:36:24;101417.50;;;10.24
15709;BMP180;7954;51.914;8.420;2023-02-15T08:38:53;101419.66;;;10.27
15709;BMP180;7954;51.914;8.420;2023-02-15T08:41:23;101420.00;;;10.38
15709;BMP180;7954;51.914;8.420;2023-02-15T08:43:53;101413.56;;;10.44
15709;BMP180;7954;51.914;8.420;2023-02-15T08:46:24;101411.75;;;10.52
15709;BMP180;7954;51.914;8.420;2023-02-15T08:48:54;101409.38;;;10.58
15709;BMP180;7954;51.914;8.420;2023-02-15T08:51:23;101407.84;;;10.68
15709;BMP180;7954;51.914;8.420;2023-02-15T08:53:53;101416.69;;;10.79
15709;BMP180;7954;51.914;8.420;2023-02-15T08:56:22;101406.78;;;10.85
15709;BMP180;7954;51.914;8.420;2023-02-15T08:58:52;101408.41;;;10.93
15709;BMP180;7954;51.914;8.420;2023-02-15T09:01:22;101406.72;;;11.07
15709;BMP180;7954;51.914;8.420;2023-02-15T09:03:55;101402.00;;;11.18
15709;BMP180;7954;51.914;8.420;2023-02-15T09:06:24;101400.69;;;11.30
15709;BMP180;7954;51.914;8.420;2023-02-15T09:08:53;101391.28;;;11.38
15709;BMP180;7954;51.914;8.420;2023-02-15T09:11:25;101396.28;;;11.52
15709;BMP180;7954;51.914;8.420;2023-02-15T09:13:55;101392.72;;;11.55
15709;BMP180;7954;51.914;8.420;2023-02-15T09:16:25;101401.13;;;11.69
15709;BMP180;7954;51.914;8.420;2023-02-15T09:18:55;101386.31;;;11.76
15709;BMP180;7954;51.914;8.420;2023-02-15T09:21:25;101381.25;;;11.76
15709;BMP180;7954;51.914;8.420;2023-02-15T09:23:56;101375.94;;;11.93
15709;BMP180;7954;51.914;8.420;2023-02-15T09:26:28;101367.31;;;12.06
15709;BMP180;7954;51.914;8.420;2023-02-15T09:28:57;101362.91;;;12.15
15709;BMP180;7954;51.914;8.420;2023-02-15T09:31:27;101362.63;;;12.22
15709;BMP180;7954;51.914;8.420;2023-02-15T09:33:58;101363.41;;;12.36
15709;BMP180;7954;51.914;8.420;2023-02-15T09:36:29;101371.66;;;12.45
15709;BMP180;7954;51.914;8.420;2023-02-15T09:38:59;101367.50;;;12.55
15709;BMP180;7954;51.914;8.420;2023-02-15T09:41:54;101359.19;;;12.65
15709;BMP180;7954;51.914;8.420;2023-02-15T09:44:38;101359.19;;;12.75
15709;BMP180;7954;51.914;8.420;2023-02-15T09:47:26;101356.63;;;12.84
15709;BMP180;7954;51.914;8.420;2023-02-15T09:50:05;101357.72;;;12.90
15709;BMP180;7954;51.914;8.420;2023-02-15T09:52:53;101354.19;;;12.99
15709;BMP180;7954;51.914;8.420;2023-02-15T09:55:39;101356.66;;;13.08
15709;BMP180;7954;51.914;8.420;2023-02-15T09:58:15;101344.13;;;13.14
15709;BMP180;7954;51.914;8.420;2023-02-15T10:00:53;101350.06;;;13.24
15709;BMP180;7954;51.914;8.420;2023-02-15T10:03:36;101350.94;;;13.34
15709;BMP180;7954;51.914;8.420;2023-02-15T10:06:32;101355.03;;;13.43
15709;BMP180;7954;51.914;8.420;2023-02-15T10:09:19;101349.63;;;13.50
15709;BMP180;7954;51.914;8.420;2023-02-15T10:12:14;101347.94;;;13.60
15709;BMP180;7954;51.914;8.420;2023-02-15T10:14:56;101350.00;;;13.72
15709;BMP180;7954;51.914;8.420;2023-02-15T10:17:42;101343.94;;;13.81
15709;BMP180;7954;51.914;8.420;2023-02-15T10:20:20;101341.56;;;13.92
15709;BMP180;7954;51.914;8.420;2023-02-15T10:23:13;101345.22;;;14.04
15709;BMP180;7954;51.914;8.420;2023-02-15T10:25:47;101344.31;;;14.18
15709;BMP180;7954;51.914;8.420;2023-02-15T10:28:19;101335.59;;;14.21
15709;BMP180;7954;51.914;8.420;2023-02-15T10:30:48;101342.44;;;14.32
15709;BMP180;7954;51.914;8.420;2023-02-15T10:33:31;101330.56;;;14.42
15709;BMP180;7954;51.914;8.420;2023-02-15T10:36:11;101332.84;;;14.55
15709;BMP180;7954;51.914;8.420;2023-02-15T10:38:42;101316.19;;;14.57
15709;BMP180;7954;51.914;8.420;2023-02-15T10:41:26;101318.28;;;14.75
15709;BMP180;7954;51.914;8.420;2023-02-15T10:44:05;101319.78;;;14.83
15709;BMP180;7954;51.914;8.420;2023-02-15T10:46:57;101312.47;;;14.90
15709;BMP180;7954;51.914;8.420;2023-02-15T10:49:36;101313.50;;;15.02
15709;BMP180;7954;51.914;8.420;2023-02-15T10:52:21;101301.66;;;15.17
15709;BMP180;7954;51.914;8.420;2023-02-15T10:55:05;101302.25;;;15.26
15709;BMP180;7954;51.914;8.420;2023-02-15T10:57:44;101307.00;;;15.39
15709;BMP180;7954;51.914;8.420;2023-02-15T11:00:19;101304.25;;;15.43
15709;BMP180;7954;51.914;8.420;2023-02-15T11:03:01;101300.84;;;15.48
15709;BMP180;7954;51.914;8.420;2023-02-15T11:05:39;101293.09;;;15.63
15709;BMP180;7954;51.914;8.420;2023-02-15T11:08:10;101294.69;;;15.62
15709;BMP180;7954;51.914;8.420;2023-02-15T11:10:42;101281.81;;;15.72
15709;BMP180;7954;51.914;8.420;2023-02-15T11:13:16;101288.59;;;15.82
15709;BMP180;7954;51.914;8.420;2023-02-15T11:15:47;101292.13;;;15.88
15709;BMP180;7954;51.914;8.420;2023-02-15T11:18:32;101293.31;;;15.96
15709;BMP180;7954;51.914;8.420;2023-02-15T11:21:02;101282.31;;;16.11
15709;BMP180;7954;51.914;8.420;2023-02-15T11:23:37;101287.19;;;16.15
15709;BMP180;7954;51.914;8.420;2023-02-15T11:26:13;101283.53;;;16.19
15709;BMP180;7954;51.914;8.420;2023-02-15T11:28:45;101284.41;;;16.08
15709;BMP180;7954;51.914;8.420;2023-02-15T11:31:18;101285.34;;;16.14
15709;BMP180;7954;51.914;8.420;2023-02-15T11:33:50;101280.63;;;16.32
15709;BMP180;7954;51.914;8.420;2023-02-15T11:36:20;101283.00;;;16.47
15709;BMP180;7954;51.914;8.420;2023-02-15T11:38:56;101271.69;;;16.56
15709;BMP180;7954;51.914;8.420;2023-02-15T11:41:30;101266.63;;;16.67
15709;BMP180;7954;51.914;8.420;2023-02-15T11:44:05;101268.53;;;16.84
15709;BMP180;7954;51.914;8.420;2023-02-15T11:46:34;101267.16;;;16.92
15709;BMP180;7954;51.914;8.420;2023-02-15T11:49:07;101267.66;;;17.06
15709;BMP180;7954;51.914;8.420;2023-02-15T11:51:37;101253.25;;;17.01
15709;BMP180;7954;51.914;8.420;2023-02-15T11:54:07;101251.41;;;17.11
15709;BMP180;7954;51.914;8.420;2023-02-15T11:56:37;101246.78;;;17.25
15709;BMP180;7954;51.914;8.420;2023-02-15T11:59:10;101241.72;;;17.41
15709;BMP180;7954;51.914;8.420;2023-02-15T12:01:42;101244.50;;;17.53
15709;BMP180;7954;51.914;8.420;2023-02-15T12:04:18;101234.97;;;17.63
15709;BMP180;7954;51.914;8.420;2023-02-15T12:06:51;101230.56;;;17.79
15709;BMP180;7954;51.914;8.420;2023-02-15T12:09:32;101220.31;;;17.90
15709;BMP180;7954;51.914;8.420;2023-02-15T12:12:24;101224.19;;;18.04
15709;BMP180;7954;51.914;8.420;2023-02-15T12:14:53;101215.09;;;18.11
15709;BMP180;7954;51.914;8.420;2023-02-15T12:17:23;101217.19;;;18.25
15709;BMP180;7954;51.914;8.420;2023-02-15T12:19:52;101215.56;;;18.31
15709;BMP180;7954;51.914;8.420;2023-02-15T12:22:24;101216.91;;;18.40
15709;BMP180;7954;51.914;8.420;2023-02-15T12:24:54;101213.13;;;18.49
15709;BMP180;7954;51.914;8.420;2023-02-15T12:27:27;101209.09;;;18.67
15709;BMP180;7954;51.914;8.420;2023-02-15T12:29:58;101194.84;;;18.80
15709;BMP180;7954;51.914;8.420;2023-02-15T12:32:29;101186.06;;;18.96
15709;BMP180;7954;51.914;8.420;2023-02-15T12:35:01;101192.78;;;19.06
15709;BMP180;7954;51.914;8.420;2023-02-15T12:37:31;101183.66;;;19.14
15709;BMP180;7954;51.914;8.420;2023-02-15T12:40:10;101177.97;;;19.27
15709;BMP180;7954;51.914;8.420;2023-02-15T12:42:46;101164.94;;;19.49
15709;BMP180;7954;51.914;8.420;2023-02-15T12:45:23;101163.78;;;19.70
15709;BMP180;7954;51.914;8.420;2023-02-15T12:48:14;101163.09;;;19.95
15709;BMP180;7954;51.914;8.420;2023-02-15T12:50:48;101146.56;;;20.10
15709;BMP180;7954;51.914;8.420;2023-02-15T12:53:33;101158.81;;;20.36
15709;BMP180;7954;51.914;8.420;2023-02-15T12:56:03;101145.97;;;20.54
15709;BMP180;7954;51.914;8.420;2023-02-15T12:58:33;101153.19;;;20.74
15709;BMP180;7954;51.914;8.420;2023-02-15T13:01:04;101126.31;;;21.03
15709;BMP180;7954;51.914;8.420;2023-02-15T13:03:58;101129.22;;;21.36
15709;BMP180;7954;51.914;8.420;2023-02-15T13:06:27;101126.09;;;21.69
15709;BMP180;7954;51.914;8.420;2023-02-15T13:08:57;101125.09;;;21.93
15709;BMP180;7954;51.914;8.420;2023-02-15T13:11:27;101128.44;;;22.11
15709;BMP180;7954;51.914;8.420;2023-02-15T13:14:03;101116.63;;;22.51
15709;BMP180;7954;51.914;8.420;2023-02-15T13:16:45;101110.28;;;22.80
15709;BMP180;7954;51.914;8.420;2023-02-15T13:19:16;101108.03;;;23.15
15709;BMP180;7954;51.914;8.420;2023-02-15T13:21:47;101112.63;;;23.44
15709;BMP180;7954;51.914;8.420;2023-02-15T13:24:20;101108.28;;;23.57
15709;BMP180;7954;51.914;8.420;2023-02-15T13:26:52;101113.59;;;23.78
15709;BMP180;7954;51.914;8.420;2023-02-15T13:29:40;101096.88;;;23.95
15709;BMP180;7954;51.914;8.420;2023-02-15T13:32:19;101098.41;;;24.07
15709;BMP180;7954;51.914;8.420;2023-02-15T13:34:58;101089.44;;;24.24
15709;BMP180;7954;51.914;8.420;2023-02-15T13:37:47;101076.59;;;24.59
15709;BMP180;7954;51.914;8.420;2023-02-15T13:40:25;101070.31;;;24.99
15709;BMP180;7954;51.914;8.420;2023-02-15T13:42:57;101057.94;;;25.24
15709;BMP180;7954;51.914;8.420;2023-02-15T13:45:39;101056.59;;;25.48
15709;BMP180;7954;51.914;8.420;2023-02-15T13:48:15;101052.81;;;25.67
15709;BMP180;7954;51.914;8.420;2023-02-15T13:50:55;101057.94;;;25.88
15709;BMP180;7954;51.914;8.420;2023-02-15T13:53:36;101043.50;;;25.90
15709;BMP180;7954;51.914;8.420;2023-02-15T13:56:16;101050.78;;;25.65
15709;BMP180;7954;51.914;8.420;2023-02-15T13:59:01;101053.19;;;25.63
15709;BMP180;7954;51.914;8.420;2023-02-15T14:01:40;101037.78;;;25.86
15709;BMP180;7954;51.914;8.420;2023-02-15T14:04:32;101032.25;;;26.12
15709;BMP180;7954;51.914;8.420;2023-02-15T14:07:16;101037.47;;;26.41
15709;BMP180;7954;51.914;8.420;2023-02-15T14:09:52;101033.16;;;26.49
15709;BMP180;7954;51.914;8.420;2023-02-15T14:12:32;101033.00;;;26.69
15709;BMP180;7954;51.914;8.420;2023-02-15T14:15:20;101017.06;;;26.89
15709;BMP180;7954;51.914;8.420;2023-02-15T14:17:58;101019.22;;;27.00
15709;BMP180;7954;51.914;8.420;2023-02-15T14:20:39;101018.91;;;27.12
15709;BMP180;7954;51.914;8.420;2023-02-15T14:23:17;101019.09;;;27.29
15709;BMP180;7954;51.914;8.420;2023-02-15T14:25:57;101023.28;;;27.35
15709;BMP180;7954;51.914;8.420;2023-02-15T14:28:28;101013.78;;;27.36
15709;BMP180;7954;51.914;8.420;2023-02-15T14:30:59;101017.91;;;27.34
15709;BMP180;7954;51.914;8.420;2023-02-15T14:33:34;101023.09;;;27.34
15709;BMP180;7954;51.914;8.420;2023-02-15T14:36:15;101014.31;;;27.40
15709;BMP180;7954;51.914;8.420;2023-02-15T14:38:56;101011.31;;;27.60
15709;BMP180;7954;51.914;8.420;2023-02-15T14:41:36;101010.38;;;27.75
15709;BMP180;7954;51.914;8.420;2023-02-15T14:44:11;101010.50;;;27.92
15709;BMP180;7954;51.914;8.420;2023-02-15T14:46:46;101005.66;;;27.94
15709;BMP180;7954;51.914;8.420;2023-02-15T14:49:21;101008.31;;;28.03
15709;BMP180;7954;51.914;8.420;2023-02-15T14:51:57;101012.38;;;27.92
15709;BMP180;7954;51.914;8.420;2023-02-15T14:54:54;101002.56;;;27.75